PWSweather.com
Personal Weather Stations
Station Observations
APRSFL1
Magnolia Valley, New Port Richey, FL 34653

Magnolia ValleyNew Port Richey, FL 34653

Lat: 28.26, Lon: -82.688

Elevation: 19

Station Type: Davis Vantage Pro 2 Plus with 70ft high Webcam

http://www.aprsfl.net/weather

Latest ConditionsUpdated 3:25:08 PM EST Tuesday, Feb 9, 2016
Currently Today's Max Today's Min Today's Average
Temperature 59.7°F15.4°C 60.4°F15.8°C 50.8°F10.4°C 54.3°F12.4°C
Dew Point 44.5°F6.9°C 46.1°F7.8°C 34.8°F1.6°C 40.4°F4.7°C
Winds 18.0 mph WSW29.0 kmh WSW 26.0 mph W41.8 kmh W - 9.0 mph 14.5 kmh
Wind Gusts 18.0 mph29.0 kmh 29.0 mph46.7 kmh - -
Humidity 57% 65% 53% 59%
Pressure 30.02 in1016.6 mb 30.12 in1020.0 mb 29.97 in1014.9 mb -
Hour Temp Dew Point Humidity Winds Wind Gusts Pressure Precip Precip Rate Daily Precip Total
03:25 PM 59.7°F15.4°C 44.5°F6.9°C 57% 18.0 mph WSW29.0 kmh WSW 18.0 mph29.0 kmh 30.02 in1016.6 mb 0.00 in0.0 mm 0.00 in0.0 mm 0.01 in0.3 mm
03:20 PM 59.6°F15.3°C 43.9°F6.6°C 56% 8.0 mph SW12.9 kmh SW 16.0 mph25.7 kmh 30.03 in1016.9 mb 0.00 in0.0 mm 0.00 in0.0 mm 0.01 in0.3 mm
03:15 PM 59.7°F15.4°C 44.0°F6.7°C 56% 21.0 mph W33.8 kmh W 21.0 mph33.8 kmh 30.03 in1016.9 mb 0.00 in0.0 mm 0.00 in0.0 mm 0.01 in0.3 mm
03:10 PM 59.8°F15.4°C 44.1°F6.7°C 56% 13.0 mph WSW20.9 kmh WSW 13.0 mph20.9 kmh 30.02 in1016.6 mb 0.00 in0.0 mm 0.00 in0.0 mm 0.01 in0.3 mm
03:05 PM 60.0°F15.6°C 44.3°F6.8°C 56% 11.0 mph WNW17.7 kmh WNW 14.0 mph22.5 kmh 30.02 in1016.6 mb 0.00 in0.0 mm 0.00 in0.0 mm 0.01 in0.3 mm
03:00 PM 60.3°F15.7°C 45.0°F7.2°C 57% 11.0 mph WNW17.7 kmh WNW 20.0 mph32.2 kmh 30.02 in1016.6 mb 0.00 in0.0 mm 0.00 in0.0 mm 0.01 in0.3 mm
02:55 PM 60.4°F15.8°C 45.1°F7.3°C 57% 10.0 mph WSW16.1 kmh WSW 18.0 mph29.0 kmh 30.02 in1016.6 mb 0.00 in0.0 mm 0.00 in0.0 mm 0.01 in0.3 mm
02:50 PM 60.3°F15.7°C 45.0°F7.2°C 57% 15.0 mph WSW24.1 kmh WSW 18.0 mph29.0 kmh 30.02 in1016.6 mb 0.00 in0.0 mm 0.00 in0.0 mm 0.01 in0.3 mm
02:45 PM 60.0°F15.6°C 43.3°F6.3°C 54% 18.0 mph W29.0 kmh W 22.0 mph35.4 kmh 30.02 in1016.6 mb 0.00 in0.0 mm 0.00 in0.0 mm 0.01 in0.3 mm
02:40 PM 59.4°F15.2°C 43.7°F6.5°C 56% 15.0 mph W24.1 kmh W 23.0 mph37.0 kmh 30.02 in1016.6 mb 0.00 in0.0 mm 0.00 in0.0 mm 0.01 in0.3 mm
02:35 PM 58.8°F14.9°C 45.0°F7.2°C 60% 17.0 mph W27.4 kmh W 26.0 mph41.8 kmh 30.02 in1016.6 mb 0.00 in0.0 mm 0.00 in0.0 mm 0.01 in0.3 mm
02:30 PM 57.8°F14.3°C 45.3°F7.4°C 63% 14.0 mph NW22.5 kmh NW 23.0 mph37.0 kmh 30.02 in1016.6 mb 0.00 in0.0 mm 0.00 in0.0 mm 0.01 in0.3 mm
02:25 PM 57.1°F13.9°C 45.5°F7.5°C 65% 8.0 mph WSW12.9 kmh WSW 11.0 mph17.7 kmh 30.02 in1016.6 mb 0.00 in0.0 mm 0.00 in0.0 mm 0.01 in0.3 mm
02:20 PM 57.0°F13.9°C 45.4°F7.4°C 65% 8.0 mph NW12.9 kmh NW 9.0 mph14.5 kmh 30.03 in1016.9 mb 0.00 in0.0 mm 0.00 in0.0 mm 0.01 in0.3 mm
02:15 PM 56.9°F13.8°C 45.3°F7.4°C 65% 4.0 mph WNW6.4 kmh WNW 10.0 mph16.1 kmh 30.03 in1016.9 mb 0.00 in0.0 mm 0.00 in0.0 mm 0.01 in0.3 mm
02:10 PM 56.9°F13.8°C 45.3°F7.4°C 65% 9.0 mph WSW14.5 kmh WSW 9.0 mph14.5 kmh 30.03 in1016.9 mb 0.00 in0.0 mm 0.00 in0.0 mm 0.01 in0.3 mm
02:05 PM 56.8°F13.8°C 44.8°F7.1°C 64% 6.0 mph W9.7 kmh W 10.0 mph16.1 kmh 30.02 in1016.6 mb 0.00 in0.0 mm 0.00 in0.0 mm 0.01 in0.3 mm
02:00 PM 56.4°F13.6°C 44.8°F7.1°C 65% 9.0 mph WNW14.5 kmh WNW 9.0 mph14.5 kmh 30.03 in1016.9 mb 0.00 in0.0 mm 0.00 in0.0 mm 0.01 in0.3 mm
01:55 PM 56.2°F13.4°C 44.2°F6.8°C 64% 4.0 mph WNW6.4 kmh WNW 7.0 mph11.3 kmh 30.03 in1016.9 mb 0.00 in0.0 mm 0.00 in0.0 mm 0.01 in0.3 mm
01:50 PM 56.1°F13.4°C 44.1°F6.7°C 64% 7.0 mph NW11.3 kmh NW 7.0 mph11.3 kmh 30.03 in1016.9 mb 0.00 in0.0 mm 0.00 in0.0 mm 0.01 in0.3 mm
01:45 PM 56.1°F13.4°C 44.1°F6.7°C 64% 3.0 mph WNW4.8 kmh WNW 6.0 mph9.7 kmh 30.03 in1016.9 mb 0.00 in0.0 mm 0.00 in0.0 mm 0.01 in0.3 mm
01:40 PM 56.1°F13.4°C 44.1°F6.7°C 64% 7.0 mph NW11.3 kmh NW 9.0 mph14.5 kmh 30.04 in1017.3 mb 0.00 in0.0 mm 0.00 in0.0 mm 0.01 in0.3 mm
01:35 PM 56.2°F13.4°C 44.6°F7.0°C 65% 7.0 mph WNW11.3 kmh WNW 10.0 mph16.1 kmh 30.04 in1017.3 mb 0.00 in0.0 mm 0.00 in0.0 mm 0.01 in0.3 mm
01:30 PM 56.0°F13.3°C 44.4°F6.9°C 65% 5.0 mph NW8.0 kmh NW 6.0 mph9.7 kmh 30.04 in1017.3 mb 0.00 in0.0 mm 0.00 in0.0 mm 0.01 in0.3 mm
01:25 PM 56.0°F13.3°C 44.0°F6.7°C 64% 13.0 mph W20.9 kmh W 13.0 mph20.9 kmh 30.04 in1017.3 mb 0.00 in0.0 mm 0.00 in0.0 mm 0.01 in0.3 mm
01:20 PM 56.1°F13.4°C 44.5°F6.9°C 65% 15.0 mph NW24.1 kmh NW 20.0 mph32.2 kmh 30.05 in1017.6 mb 0.00 in0.0 mm 0.00 in0.0 mm 0.01 in0.3 mm
01:15 PM 56.2°F13.4°C 44.2°F6.8°C 64% 11.0 mph NNW17.7 kmh NNW 14.0 mph22.5 kmh 30.05 in1017.6 mb 0.00 in0.0 mm 0.00 in0.0 mm 0.01 in0.3 mm
01:10 PM 56.1°F13.4°C 43.7°F6.5°C 63% 3.0 mph W4.8 kmh W 10.0 mph16.1 kmh 30.05 in1017.6 mb 0.00 in0.0 mm 0.00 in0.0 mm 0.01 in0.3 mm
01:05 PM 56.1°F13.4°C 44.1°F6.7°C 64% 8.0 mph SW12.9 kmh SW 13.0 mph20.9 kmh 30.05 in1017.6 mb 0.00 in0.0 mm 0.00 in0.0 mm 0.01 in0.3 mm
01:00 PM 55.8°F13.2°C 43.8°F6.6°C 64% 3.0 mph W4.8 kmh W 4.0 mph6.4 kmh 30.06 in1017.9 mb 0.00 in0.0 mm 0.00 in0.0 mm 0.01 in0.3 mm
12:55 PM 55.4°F13.0°C 43.0°F6.1°C 63% 3.0 mph WNW4.8 kmh WNW 6.0 mph9.7 kmh 30.06 in1017.9 mb 0.00 in0.0 mm 0.00 in0.0 mm 0.01 in0.3 mm
12:50 PM 55.1°F12.8°C 42.8°F6.0°C 63% 8.0 mph WSW12.9 kmh WSW 10.0 mph16.1 kmh 30.07 in1018.3 mb 0.00 in0.0 mm 0.00 in0.0 mm 0.01 in0.3 mm
12:45 PM 55.0°F12.8°C 42.7°F5.9°C 63% 5.0 mph NW8.0 kmh NW 9.0 mph14.5 kmh 30.07 in1018.3 mb 0.00 in0.0 mm 0.00 in0.0 mm 0.01 in0.3 mm
12:40 PM 54.7°F12.6°C 42.8°F6.0°C 64% 3.0 mph N4.8 kmh N 5.0 mph8.0 kmh 30.08 in1018.6 mb 0.00 in0.0 mm 0.00 in0.0 mm 0.01 in0.3 mm
12:35 PM 54.4°F12.4°C 42.5°F5.8°C 64% 4.0 mph W6.4 kmh W 6.0 mph9.7 kmh 30.08 in1018.6 mb 0.00 in0.0 mm 0.00 in0.0 mm 0.01 in0.3 mm
12:30 PM 54.2°F12.3°C 42.3°F5.7°C 64% 4.0 mph NW6.4 kmh NW 11.0 mph17.7 kmh 30.08 in1018.6 mb 0.00 in0.0 mm 0.00 in0.0 mm 0.01 in0.3 mm
12:25 PM 53.8°F12.1°C 41.9°F5.5°C 64% 7.0 mph W11.3 kmh W 9.0 mph14.5 kmh 30.08 in1018.6 mb 0.01 in0.3 mm 0.00 in0.0 mm 0.01 in0.3 mm
12:20 PM 53.5°F11.9°C 42.0°F5.6°C 65% 6.0 mph NW9.7 kmh NW 6.0 mph9.7 kmh 30.08 in1018.6 mb 0.01 in0.3 mm 0.00 in0.0 mm 0.01 in0.3 mm
12:15 PM 53.4°F11.9°C 41.9°F5.5°C 65% 4.0 mph W6.4 kmh W 9.0 mph14.5 kmh 30.09 in1019.0 mb 0.01 in0.3 mm 0.00 in0.0 mm 0.01 in0.3 mm
12:10 PM 53.3°F11.8°C 41.5°F5.3°C 64% 7.0 mph NW11.3 kmh NW 7.0 mph11.3 kmh 30.09 in1019.0 mb 0.01 in0.3 mm 0.00 in0.0 mm 0.01 in0.3 mm
12:05 PM 53.4°F11.9°C 41.5°F5.3°C 64% 12.0 mph NNW19.3 kmh NNW 12.0 mph19.3 kmh 30.10 in1019.3 mb 0.01 in0.3 mm 0.00 in0.0 mm 0.01 in0.3 mm
12:00 PM 53.5°F11.9°C 41.6°F5.3°C 64% 5.0 mph N8.0 kmh N 8.0 mph12.9 kmh 30.10 in1019.3 mb 0.01 in0.3 mm 0.00 in0.0 mm 0.01 in0.3 mm
11:55 AM 53.6°F12.0°C 41.3°F5.2°C 63% 11.0 mph NW17.7 kmh NW 14.0 mph22.5 kmh 30.10 in1019.3 mb 0.01 in0.3 mm 0.00 in0.0 mm 0.01 in0.3 mm
11:50 AM 53.6°F12.0°C 40.9°F4.9°C 62% 8.0 mph NW12.9 kmh NW 9.0 mph14.5 kmh 30.10 in1019.3 mb 0.01 in0.3 mm 0.00 in0.0 mm 0.01 in0.3 mm
11:45 AM 53.6°F12.0°C 40.5°F4.7°C 61% 7.0 mph W11.3 kmh W 9.0 mph14.5 kmh 30.10 in1019.3 mb 0.01 in0.3 mm 0.00 in0.0 mm 0.01 in0.3 mm
11:40 AM 53.8°F12.1°C 40.7°F4.8°C 61% 10.0 mph NW16.1 kmh NW 11.0 mph17.7 kmh 30.11 in1019.6 mb 0.01 in0.3 mm 0.00 in0.0 mm 0.01 in0.3 mm
11:35 AM 54.1°F12.3°C 40.5°F4.7°C 60% 2.0 mph NW3.2 kmh NW 11.0 mph17.7 kmh 30.11 in1019.6 mb 0.01 in0.3 mm 0.00 in0.0 mm 0.01 in0.3 mm
11:30 AM 54.4°F12.4°C 40.8°F4.9°C 60% 10.0 mph WNW16.1 kmh WNW 10.0 mph16.1 kmh 30.11 in1019.6 mb 0.01 in0.3 mm 0.00 in0.0 mm 0.01 in0.3 mm
11:25 AM 54.4°F12.4°C 40.8°F4.9°C 60% 4.0 mph NW6.4 kmh NW 9.0 mph14.5 kmh 30.11 in1019.6 mb 0.01 in0.3 mm 0.00 in0.0 mm 0.01 in0.3 mm
11:20 AM 54.3°F12.4°C 40.7°F4.8°C 60% 7.0 mph WNW11.3 kmh WNW 13.0 mph20.9 kmh 30.11 in1019.6 mb 0.01 in0.3 mm 0.12 in3.0 mm 0.01 in0.3 mm
11:15 AM 53.8°F12.1°C 40.7°F4.8°C 61% 9.0 mph NW14.5 kmh NW 13.0 mph20.9 kmh 30.11 in1019.6 mb 0.00 in0.0 mm 0.00 in0.0 mm 0.00 in0.0 mm
11:10 AM 53.4°F11.9°C 40.3°F4.6°C 61% 11.0 mph WNW17.7 kmh WNW 12.0 mph19.3 kmh 30.11 in1019.6 mb 0.00 in0.0 mm 0.00 in0.0 mm 0.00 in0.0 mm
11:05 AM 53.3°F11.8°C 40.2°F4.6°C 61% 14.0 mph WNW22.5 kmh WNW 14.0 mph22.5 kmh 30.12 in1020.0 mb 0.00 in0.0 mm 0.00 in0.0 mm 0.00 in0.0 mm
11:00 AM 53.1°F11.7°C 40.0°F4.4°C 61% 7.0 mph NW11.3 kmh NW 10.0 mph16.1 kmh 30.11 in1019.6 mb 0.00 in0.0 mm 0.00 in0.0 mm 0.00 in0.0 mm
10:55 AM 52.8°F11.6°C 40.2°F4.6°C 62% 5.0 mph WNW8.0 kmh WNW 8.0 mph12.9 kmh 30.11 in1019.6 mb 0.00 in0.0 mm 0.00 in0.0 mm 0.00 in0.0 mm
10:50 AM 52.6°F11.4°C 40.4°F4.7°C 63% 4.0 mph WNW6.4 kmh WNW 9.0 mph14.5 kmh 30.12 in1020.0 mb 0.00 in0.0 mm 0.00 in0.0 mm 0.00 in0.0 mm
10:45 AM 52.4°F11.3°C 39.8°F4.3°C 62% 5.0 mph NW8.0 kmh NW 9.0 mph14.5 kmh 30.12 in1020.0 mb 0.00 in0.0 mm 0.00 in0.0 mm 0.00 in0.0 mm
10:40 AM 52.4°F11.3°C 39.4°F4.1°C 61% 9.0 mph NW14.5 kmh NW 11.0 mph17.7 kmh 30.12 in1020.0 mb 0.00 in0.0 mm 0.00 in0.0 mm 0.00 in0.0 mm
10:35 AM 52.5°F11.4°C 39.5°F4.2°C 61% 6.0 mph NNW9.7 kmh NNW 11.0 mph17.7 kmh 30.12 in1020.0 mb 0.00 in0.0 mm 0.00 in0.0 mm 0.00 in0.0 mm
10:30 AM 52.6°F11.4°C 40.0°F4.4°C 62% 6.0 mph NNW9.7 kmh NNW 10.0 mph16.1 kmh 30.12 in1020.0 mb 0.00 in0.0 mm 0.00 in0.0 mm 0.00 in0.0 mm
10:25 AM 52.6°F11.4°C 39.6°F4.2°C 61% 9.0 mph NW14.5 kmh NW 9.0 mph14.5 kmh 30.12 in1020.0 mb 0.00 in0.0 mm 0.00 in0.0 mm 0.00 in0.0 mm
10:20 AM 52.7°F11.5°C 39.6°F4.2°C 61% 6.0 mph NW9.7 kmh NW 10.0 mph16.1 kmh 30.12 in1020.0 mb 0.00 in0.0 mm 0.00 in0.0 mm 0.00 in0.0 mm
10:15 AM 52.9°F11.6°C 40.3°F4.6°C 62% 5.0 mph NNW8.0 kmh NNW 12.0 mph19.3 kmh 30.11 in1019.6 mb 0.00 in0.0 mm 0.00 in0.0 mm 0.00 in0.0 mm
10:10 AM 52.8°F11.6°C 40.2°F4.6°C 62% 9.0 mph NW14.5 kmh NW 12.0 mph19.3 kmh 30.11 in1019.6 mb 0.00 in0.0 mm 0.00 in0.0 mm 0.00 in0.0 mm
10:05 AM 52.7°F11.5°C 39.6°F4.2°C 61% 4.0 mph NW6.4 kmh NW 7.0 mph11.3 kmh 30.11 in1019.6 mb 0.00 in0.0 mm 0.00 in0.0 mm 0.00 in0.0 mm
10:00 AM 52.7°F11.5°C 39.6°F4.2°C 61% 4.0 mph N6.4 kmh N 4.0 mph6.4 kmh 30.11 in1019.6 mb 0.00 in0.0 mm 0.00 in0.0 mm 0.00 in0.0 mm
09:55 AM 52.7°F11.5°C 39.6°F4.2°C 61% 4.0 mph N6.4 kmh N 9.0 mph14.5 kmh 30.11 in1019.6 mb 0.00 in0.0 mm 0.00 in0.0 mm 0.00 in0.0 mm
09:50 AM 52.7°F11.5°C 39.6°F4.2°C 61% 13.0 mph NW20.9 kmh NW 13.0 mph20.9 kmh 30.11 in1019.6 mb 0.00 in0.0 mm 0.00 in0.0 mm 0.00 in0.0 mm
09:45 AM 52.8°F11.6°C 39.7°F4.3°C 61% 6.0 mph WNW9.7 kmh WNW 10.0 mph16.1 kmh 30.11 in1019.6 mb 0.00 in0.0 mm 0.00 in0.0 mm 0.00 in0.0 mm
09:40 AM 52.8°F11.6°C 39.7°F4.3°C 61% 11.0 mph NW17.7 kmh NW 14.0 mph22.5 kmh 30.11 in1019.6 mb 0.00 in0.0 mm 0.00 in0.0 mm 0.00 in0.0 mm
09:35 AM 52.8°F11.6°C 39.3°F4.1°C 60% 7.0 mph W11.3 kmh W 9.0 mph14.5 kmh 30.11 in1019.6 mb 0.00 in0.0 mm 0.00 in0.0 mm 0.00 in0.0 mm
09:30 AM 52.6°F11.4°C 39.6°F4.2°C 61% 5.0 mph NW8.0 kmh NW 13.0 mph20.9 kmh 30.11 in1019.6 mb 0.00 in0.0 mm 0.00 in0.0 mm 0.00 in0.0 mm
09:25 AM 52.4°F11.3°C 39.4°F4.1°C 61% 8.0 mph NW12.9 kmh NW 8.0 mph12.9 kmh 30.11 in1019.6 mb 0.00 in0.0 mm 0.00 in0.0 mm 0.00 in0.0 mm
09:20 AM 52.3°F11.3°C 39.3°F4.1°C 61% 2.0 mph W3.2 kmh W 6.0 mph9.7 kmh 30.11 in1019.6 mb 0.00 in0.0 mm 0.00 in0.0 mm 0.00 in0.0 mm
09:15 AM 52.3°F11.3°C 38.8°F3.8°C 60% 5.0 mph NW8.0 kmh NW 9.0 mph14.5 kmh 30.11 in1019.6 mb 0.00 in0.0 mm 0.00 in0.0 mm 0.00 in0.0 mm
09:10 AM 52.3°F11.3°C 38.8°F3.8°C 60% 8.0 mph NW12.9 kmh NW 13.0 mph20.9 kmh 30.11 in1019.6 mb 0.00 in0.0 mm 0.00 in0.0 mm 0.00 in0.0 mm
09:05 AM 52.4°F11.3°C 38.9°F3.8°C 60% 10.0 mph NW16.1 kmh NW 14.0 mph22.5 kmh 30.10 in1019.3 mb 0.00 in0.0 mm 0.00 in0.0 mm 0.00 in0.0 mm
09:00 AM 52.4°F11.3°C 38.9°F3.8°C 60% 5.0 mph WNW8.0 kmh WNW 6.0 mph9.7 kmh 30.10 in1019.3 mb 0.00 in0.0 mm 0.00 in0.0 mm 0.00 in0.0 mm
08:55 AM 52.3°F11.3°C 39.3°F4.1°C 61% 6.0 mph NNW9.7 kmh NNW 9.0 mph14.5 kmh 30.10 in1019.3 mb 0.00 in0.0 mm 0.00 in0.0 mm 0.00 in0.0 mm
08:50 AM 52.2°F11.2°C 39.2°F4.0°C 61% 5.0 mph NNW8.0 kmh NNW 14.0 mph22.5 kmh 30.10 in1019.3 mb 0.00 in0.0 mm 0.00 in0.0 mm 0.00 in0.0 mm
08:45 AM 52.2°F11.2°C 39.2°F4.0°C 61% 5.0 mph NW8.0 kmh NW 8.0 mph12.9 kmh 30.10 in1019.3 mb 0.00 in0.0 mm 0.00 in0.0 mm 0.00 in0.0 mm
08:40 AM 52.1°F11.2°C 39.5°F4.2°C 62% 4.0 mph NNW6.4 kmh NNW 4.0 mph6.4 kmh 30.09 in1019.0 mb 0.00 in0.0 mm 0.00 in0.0 mm 0.00 in0.0 mm
08:35 AM 52.1°F11.2°C 39.1°F3.9°C 61% 8.0 mph NW12.9 kmh NW 8.0 mph12.9 kmh 30.09 in1019.0 mb 0.00 in0.0 mm 0.00 in0.0 mm 0.00 in0.0 mm
08:30 AM 51.9°F11.1°C 39.3°F4.1°C 62% 11.0 mph NW17.7 kmh NW 11.0 mph17.7 kmh 30.10 in1019.3 mb 0.00 in0.0 mm 0.00 in0.0 mm 0.00 in0.0 mm
08:25 AM 51.7°F10.9°C 39.1°F3.9°C 62% 2.0 mph NW3.2 kmh NW 4.0 mph6.4 kmh 30.09 in1019.0 mb 0.00 in0.0 mm 0.00 in0.0 mm 0.00 in0.0 mm
08:20 AM 51.5°F10.8°C 38.9°F3.8°C 62% 4.0 mph NW6.4 kmh NW 4.0 mph6.4 kmh 30.09 in1019.0 mb 0.00 in0.0 mm 0.00 in0.0 mm 0.00 in0.0 mm
08:15 AM 51.4°F10.8°C 38.8°F3.8°C 62% 6.0 mph NW9.7 kmh NW 6.0 mph9.7 kmh 30.09 in1019.0 mb 0.00 in0.0 mm 0.00 in0.0 mm 0.00 in0.0 mm
08:10 AM 51.4°F10.8°C 38.4°F3.6°C 61% 5.0 mph WNW8.0 kmh WNW 7.0 mph11.3 kmh 30.09 in1019.0 mb 0.00 in0.0 mm 0.00 in0.0 mm 0.00 in0.0 mm
08:05 AM 51.3°F10.7°C 37.9°F3.3°C 60% 2.0 mph WNW3.2 kmh WNW 5.0 mph8.0 kmh 30.09 in1019.0 mb 0.00 in0.0 mm 0.00 in0.0 mm 0.00 in0.0 mm
08:00 AM 51.3°F10.7°C 37.9°F3.3°C 60% 8.0 mph NNW12.9 kmh NNW 10.0 mph16.1 kmh 30.09 in1019.0 mb 0.00 in0.0 mm 0.00 in0.0 mm 0.00 in0.0 mm
07:55 AM 51.2°F10.7°C 37.8°F3.2°C 60% 7.0 mph NW11.3 kmh NW 9.0 mph14.5 kmh 30.09 in1019.0 mb 0.00 in0.0 mm 0.00 in0.0 mm 0.00 in0.0 mm
07:50 AM 51.2°F10.7°C 37.4°F3.0°C 59% 4.0 mph W6.4 kmh W 4.0 mph6.4 kmh 30.09 in1019.0 mb 0.00 in0.0 mm 0.00 in0.0 mm 0.00 in0.0 mm
07:45 AM 51.2°F10.7°C 37.4°F3.0°C 59% 3.0 mph NW4.8 kmh NW 3.0 mph4.8 kmh 30.09 in1019.0 mb 0.00 in0.0 mm 0.00 in0.0 mm 0.00 in0.0 mm
07:40 AM 51.1°F10.6°C 36.9°F2.7°C 58% 4.0 mph WNW6.4 kmh WNW 11.0 mph17.7 kmh 30.09 in1019.0 mb 0.00 in0.0 mm 0.00 in0.0 mm 0.00 in0.0 mm
07:35 AM 51.1°F10.6°C 36.4°F2.4°C 57% 10.0 mph NW16.1 kmh NW 12.0 mph19.3 kmh 30.09 in1019.0 mb 0.00 in0.0 mm 0.00 in0.0 mm 0.00 in0.0 mm
07:30 AM 51.1°F10.6°C 36.4°F2.4°C 57% 11.0 mph NW17.7 kmh NW 13.0 mph20.9 kmh 30.09 in1019.0 mb 0.00 in0.0 mm 0.00 in0.0 mm 0.00 in0.0 mm
07:25 AM 51.1°F10.6°C 36.9°F2.7°C 58% 2.0 mph NW3.2 kmh NW 8.0 mph12.9 kmh 30.09 in1019.0 mb 0.00 in0.0 mm 0.00 in0.0 mm 0.00 in0.0 mm
07:20 AM 51.1°F10.6°C 36.9°F2.7°C 58% 3.0 mph W4.8 kmh W 4.0 mph6.4 kmh 30.09 in1019.0 mb 0.00 in0.0 mm 0.00 in0.0 mm 0.00 in0.0 mm
07:15 AM 51.1°F10.6°C 36.4°F2.4°C 57% 4.0 mph NW6.4 kmh NW 8.0 mph12.9 kmh 30.09 in1019.0 mb 0.00 in0.0 mm 0.00 in0.0 mm 0.00 in0.0 mm
07:10 AM 51.1°F10.6°C 36.4°F2.4°C 57% 6.0 mph W9.7 kmh W 10.0 mph16.1 kmh 30.09 in1019.0 mb 0.00 in0.0 mm 0.00 in0.0 mm 0.00 in0.0 mm
07:05 AM 51.0°F10.6°C 36.3°F2.4°C 57% 3.0 mph N4.8 kmh N 8.0 mph12.9 kmh 30.09 in1019.0 mb 0.00 in0.0 mm 0.00 in0.0 mm 0.00 in0.0 mm
07:00 AM 51.0°F10.6°C 35.9°F2.2°C 56% 4.0 mph NW6.4 kmh NW 8.0 mph12.9 kmh 30.09 in1019.0 mb 0.00 in0.0 mm 0.00 in0.0 mm 0.00 in0.0 mm
06:55 AM 51.0°F10.6°C 35.4°F1.9°C 55% 6.0 mph W9.7 kmh W 14.0 mph22.5 kmh 30.09 in1019.0 mb 0.00 in0.0 mm 0.00 in0.0 mm 0.00 in0.0 mm
06:50 AM 50.9°F10.5°C 35.8°F2.1°C 56% 7.0 mph NNE11.3 kmh NNE 11.0 mph17.7 kmh 30.09 in1019.0 mb 0.00 in0.0 mm 0.00 in0.0 mm 0.00 in0.0 mm
06:45 AM 50.9°F10.5°C 35.8°F2.1°C 56% 12.0 mph WNW19.3 kmh WNW 12.0 mph19.3 kmh 30.09 in1019.0 mb 0.00 in0.0 mm 0.00 in0.0 mm 0.00 in0.0 mm
06:40 AM 50.8°F10.4°C 34.8°F1.6°C 54% 9.0 mph NW14.5 kmh NW 10.0 mph16.1 kmh 30.09 in1019.0 mb 0.00 in0.0 mm 0.00 in0.0 mm 0.00 in0.0 mm
06:35 AM 50.9°F10.5°C 35.3°F1.8°C 55% 12.0 mph NNW19.3 kmh NNW 16.0 mph25.7 kmh 30.09 in1019.0 mb 0.00 in0.0 mm 0.00 in0.0 mm 0.00 in0.0 mm
06:30 AM 50.9°F10.5°C 35.3°F1.8°C 55% 14.0 mph WNW22.5 kmh WNW 14.0 mph22.5 kmh 30.08 in1018.6 mb 0.00 in0.0 mm 0.00 in0.0 mm 0.00 in0.0 mm
06:25 AM 51.0°F10.6°C 36.3°F2.4°C 57% 6.0 mph NNW9.7 kmh NNW 9.0 mph14.5 kmh 30.08 in1018.6 mb 0.00 in0.0 mm 0.00 in0.0 mm 0.00 in0.0 mm
06:20 AM 51.0°F10.6°C 35.9°F2.2°C 56% 8.0 mph NW12.9 kmh NW 15.0 mph24.1 kmh 30.08 in1018.6 mb 0.00 in0.0 mm 0.00 in0.0 mm 0.00 in0.0 mm
06:15 AM 51.1°F10.6°C 36.4°F2.4°C 57% 19.0 mph NW30.6 kmh NW 19.0 mph30.6 kmh 30.08 in1018.6 mb 0.00 in0.0 mm 0.00 in0.0 mm 0.00 in0.0 mm
06:10 AM 51.2°F10.7°C 37.4°F3.0°C 59% 11.0 mph NW17.7 kmh NW 11.0 mph17.7 kmh 30.08 in1018.6 mb 0.00 in0.0 mm 0.00 in0.0 mm 0.00 in0.0 mm
06:05 AM 51.2°F10.7°C 37.0°F2.8°C 58% 16.0 mph NW25.7 kmh NW 16.0 mph25.7 kmh 30.08 in1018.6 mb 0.00 in0.0 mm 0.00 in0.0 mm 0.00 in0.0 mm
06:00 AM 51.2°F10.7°C 36.5°F2.5°C 57% 10.0 mph NW16.1 kmh NW 18.0 mph29.0 kmh 30.08 in1018.6 mb 0.00 in0.0 mm 0.00 in0.0 mm 0.00 in0.0 mm
05:55 AM 51.3°F10.7°C 37.0°F2.8°C 58% 9.0 mph WNW14.5 kmh WNW 16.0 mph25.7 kmh 30.08 in1018.6 mb 0.00 in0.0 mm 0.00 in0.0 mm 0.00 in0.0 mm
05:50 AM 51.4°F10.8°C 37.6°F3.1°C 59% 17.0 mph NW27.4 kmh NW 17.0 mph27.4 kmh 30.07 in1018.3 mb 0.00 in0.0 mm 0.00 in0.0 mm 0.00 in0.0 mm
05:45 AM 51.5°F10.8°C 37.2°F2.9°C 58% 4.0 mph W6.4 kmh W 12.0 mph19.3 kmh 30.07 in1018.3 mb 0.00 in0.0 mm 0.00 in0.0 mm 0.00 in0.0 mm
05:40 AM 51.6°F10.9°C 37.3°F2.9°C 58% 5.0 mph WNW8.0 kmh WNW 11.0 mph17.7 kmh 30.07 in1018.3 mb 0.00 in0.0 mm 0.00 in0.0 mm 0.00 in0.0 mm
05:35 AM 51.7°F10.9°C 37.9°F3.3°C 59% 8.0 mph WNW12.9 kmh WNW 14.0 mph22.5 kmh 30.06 in1017.9 mb 0.00 in0.0 mm 0.00 in0.0 mm 0.00 in0.0 mm
05:30 AM 51.8°F11.0°C 37.9°F3.3°C 59% 8.0 mph NW12.9 kmh NW 14.0 mph22.5 kmh 30.06 in1017.9 mb 0.00 in0.0 mm 0.00 in0.0 mm 0.00 in0.0 mm
05:25 AM 52.0°F11.1°C 38.1°F3.4°C 59% 6.0 mph NW9.7 kmh NW 11.0 mph17.7 kmh 30.05 in1017.6 mb 0.00 in0.0 mm 0.00 in0.0 mm 0.00 in0.0 mm
05:20 AM 52.1°F11.2°C 38.2°F3.4°C 59% 16.0 mph NW25.7 kmh NW 16.0 mph25.7 kmh 30.05 in1017.6 mb 0.00 in0.0 mm 0.00 in0.0 mm 0.00 in0.0 mm
05:15 AM 52.2°F11.2°C 37.9°F3.3°C 58% 14.0 mph NW22.5 kmh NW 19.0 mph30.6 kmh 30.05 in1017.6 mb 0.00 in0.0 mm 0.00 in0.0 mm 0.00 in0.0 mm
05:10 AM 52.3°F11.3°C 38.0°F3.3°C 58% 7.0 mph WNW11.3 kmh WNW 15.0 mph24.1 kmh 30.05 in1017.6 mb 0.00 in0.0 mm 0.00 in0.0 mm 0.00 in0.0 mm
05:05 AM 52.4°F11.3°C 38.1°F3.4°C 58% 12.0 mph NW19.3 kmh NW 12.0 mph19.3 kmh 30.05 in1017.6 mb 0.00 in0.0 mm 0.00 in0.0 mm 0.00 in0.0 mm
05:00 AM 52.5°F11.4°C 37.7°F3.2°C 57% 14.0 mph WNW22.5 kmh WNW 21.0 mph33.8 kmh 30.05 in1017.6 mb 0.00 in0.0 mm 0.00 in0.0 mm 0.00 in0.0 mm
04:55 AM 52.7°F11.5°C 37.9°F3.3°C 57% 10.0 mph NW16.1 kmh NW 10.0 mph16.1 kmh 30.05 in1017.6 mb 0.00 in0.0 mm 0.00 in0.0 mm 0.00 in0.0 mm
04:50 AM 52.8°F11.6°C 38.0°F3.3°C 57% 20.0 mph NW32.2 kmh NW 20.0 mph32.2 kmh 30.04 in1017.3 mb 0.00 in0.0 mm 0.00 in0.0 mm 0.00 in0.0 mm
04:45 AM 52.9°F11.6°C 38.1°F3.4°C 57% 9.0 mph NNW14.5 kmh NNW 13.0 mph20.9 kmh 30.04 in1017.3 mb 0.00 in0.0 mm 0.00 in0.0 mm 0.00 in0.0 mm
04:40 AM 53.0°F11.7°C 38.2°F3.4°C 57% 8.0 mph WNW12.9 kmh WNW 16.0 mph25.7 kmh 30.04 in1017.3 mb 0.00 in0.0 mm 0.00 in0.0 mm 0.00 in0.0 mm
04:35 AM 53.2°F11.8°C 37.9°F3.3°C 56% 7.0 mph W11.3 kmh W 10.0 mph16.1 kmh 30.03 in1016.9 mb 0.00 in0.0 mm 0.00 in0.0 mm 0.00 in0.0 mm
04:30 AM 53.3°F11.8°C 38.0°F3.3°C 56% 10.0 mph WNW16.1 kmh WNW 15.0 mph24.1 kmh 30.03 in1016.9 mb 0.00 in0.0 mm 0.00 in0.0 mm 0.00 in0.0 mm
04:25 AM 53.4°F11.9°C 38.1°F3.4°C 56% 9.0 mph WNW14.5 kmh WNW 13.0 mph20.9 kmh 30.03 in1016.9 mb 0.00 in0.0 mm 0.00 in0.0 mm 0.00 in0.0 mm
04:20 AM 53.5°F11.9°C 38.2°F3.4°C 56% 6.0 mph W9.7 kmh W 9.0 mph14.5 kmh 30.03 in1016.9 mb 0.00 in0.0 mm 0.00 in0.0 mm 0.00 in0.0 mm
04:15 AM 53.6°F12.0°C 37.8°F3.2°C 55% 12.0 mph WNW19.3 kmh WNW 14.0 mph22.5 kmh 30.03 in1016.9 mb 0.00 in0.0 mm 0.00 in0.0 mm 0.00 in0.0 mm
04:10 AM 53.6°F12.0°C 37.8°F3.2°C 55% 13.0 mph NW20.9 kmh NW 16.0 mph25.7 kmh 30.03 in1016.9 mb 0.00 in0.0 mm 0.00 in0.0 mm 0.00 in0.0 mm
04:05 AM 53.6°F12.0°C 38.3°F3.5°C 56% 22.0 mph NW35.4 kmh NW 22.0 mph35.4 kmh 30.03 in1016.9 mb 0.00 in0.0 mm 0.00 in0.0 mm 0.00 in0.0 mm
04:00 AM 53.7°F12.1°C 38.9°F3.8°C 57% 5.0 mph NNW8.0 kmh NNW 21.0 mph33.8 kmh 30.02 in1016.6 mb 0.00 in0.0 mm 0.00 in0.0 mm 0.00 in0.0 mm
03:55 AM 53.8°F12.1°C 38.0°F3.3°C 55% 4.0 mph NNW6.4 kmh NNW 19.0 mph30.6 kmh 30.02 in1016.6 mb 0.00 in0.0 mm 0.00 in0.0 mm 0.00 in0.0 mm
03:50 AM 53.9°F12.2°C 38.1°F3.4°C 55% 11.0 mph NNW17.7 kmh NNW 15.0 mph24.1 kmh 30.02 in1016.6 mb 0.00 in0.0 mm 0.00 in0.0 mm 0.00 in0.0 mm
03:45 AM 53.9°F12.2°C 38.1°F3.4°C 55% 11.0 mph W17.7 kmh W 11.0 mph17.7 kmh 30.02 in1016.6 mb 0.00 in0.0 mm 0.00 in0.0 mm 0.00 in0.0 mm
03:40 AM 54.1°F12.3°C 38.3°F3.5°C 55% 13.0 mph NW20.9 kmh NW 13.0 mph20.9 kmh 30.02 in1016.6 mb 0.00 in0.0 mm 0.00 in0.0 mm 0.00 in0.0 mm
03:35 AM 54.2°F12.3°C 37.5°F3.1°C 53% 13.0 mph NNW20.9 kmh NNW 24.0 mph38.6 kmh 30.02 in1016.6 mb 0.00 in0.0 mm 0.00 in0.0 mm 0.00 in0.0 mm
03:30 AM 54.4°F12.4°C 37.6°F3.1°C 53% 13.0 mph NW20.9 kmh NW 21.0 mph33.8 kmh 30.02 in1016.6 mb 0.00 in0.0 mm 0.00 in0.0 mm 0.00 in0.0 mm
03:25 AM 54.6°F12.6°C 38.3°F3.5°C 54% 14.0 mph WNW22.5 kmh WNW 18.0 mph29.0 kmh 30.02 in1016.6 mb 0.00 in0.0 mm 0.00 in0.0 mm 0.00 in0.0 mm
03:20 AM 54.6°F12.6°C 37.8°F3.2°C 53% 8.0 mph W12.9 kmh W 10.0 mph16.1 kmh 30.02 in1016.6 mb 0.00 in0.0 mm 0.00 in0.0 mm 0.00 in0.0 mm
03:15 AM 54.7°F12.6°C 38.4°F3.6°C 54% 11.0 mph NW17.7 kmh NW 12.0 mph19.3 kmh 30.02 in1016.6 mb 0.00 in0.0 mm 0.00 in0.0 mm 0.00 in0.0 mm
03:10 AM 54.9°F12.7°C 38.6°F3.7°C 54% 8.0 mph NNW12.9 kmh NNW 9.0 mph14.5 kmh 30.02 in1016.6 mb 0.00 in0.0 mm 0.00 in0.0 mm 0.00 in0.0 mm
03:05 AM 55.0°F12.8°C 38.7°F3.7°C 54% 14.0 mph NW22.5 kmh NW 19.0 mph30.6 kmh 30.02 in1016.6 mb 0.00 in0.0 mm 0.00 in0.0 mm 0.00 in0.0 mm
03:00 AM 55.1°F12.8°C 39.2°F4.0°C 55% 9.0 mph NW14.5 kmh NW 20.0 mph32.2 kmh 30.02 in1016.6 mb 0.00 in0.0 mm 0.00 in0.0 mm 0.00 in0.0 mm
02:55 AM 55.2°F12.9°C 38.4°F3.6°C 53% 8.0 mph NNW12.9 kmh NNW 11.0 mph17.7 kmh 30.01 in1016.3 mb 0.00 in0.0 mm 0.00 in0.0 mm 0.00 in0.0 mm
02:50 AM 55.3°F12.9°C 39.0°F3.9°C 54% 13.0 mph NW20.9 kmh NW 19.0 mph30.6 kmh 30.01 in1016.3 mb 0.00 in0.0 mm 0.00 in0.0 mm 0.00 in0.0 mm
02:45 AM 55.3°F12.9°C 39.0°F3.9°C 54% 9.0 mph NW14.5 kmh NW 14.0 mph22.5 kmh 30.01 in1016.3 mb 0.00 in0.0 mm 0.00 in0.0 mm 0.00 in0.0 mm
02:40 AM 55.3°F12.9°C 38.5°F3.6°C 53% 3.0 mph NW4.8 kmh NW 9.0 mph14.5 kmh 30.00 in1015.9 mb 0.00 in0.0 mm 0.00 in0.0 mm 0.00 in0.0 mm
02:35 AM 55.4°F13.0°C 39.1°F3.9°C 54% 8.0 mph NW12.9 kmh NW 11.0 mph17.7 kmh 30.00 in1015.9 mb 0.00 in0.0 mm 0.00 in0.0 mm 0.00 in0.0 mm
02:30 AM 55.4°F13.0°C 38.6°F3.7°C 53% 12.0 mph NW19.3 kmh NW 21.0 mph33.8 kmh 30.00 in1015.9 mb 0.00 in0.0 mm 0.00 in0.0 mm 0.00 in0.0 mm
02:25 AM 55.5°F13.1°C 38.7°F3.7°C 53% 10.0 mph WNW16.1 kmh WNW 17.0 mph27.4 kmh 30.00 in1015.9 mb 0.00 in0.0 mm 0.00 in0.0 mm 0.00 in0.0 mm
02:20 AM 55.5°F13.1°C 38.7°F3.7°C 53% 15.0 mph NW24.1 kmh NW 18.0 mph29.0 kmh 30.00 in1015.9 mb 0.00 in0.0 mm 0.00 in0.0 mm 0.00 in0.0 mm
02:15 AM 55.6°F13.1°C 38.8°F3.8°C 53% 8.0 mph NW12.9 kmh NW 9.0 mph14.5 kmh 30.00 in1015.9 mb 0.00 in0.0 mm 0.00 in0.0 mm 0.00 in0.0 mm
02:10 AM 55.7°F13.2°C 39.3°F4.1°C 54% 13.0 mph NW20.9 kmh NW 13.0 mph20.9 kmh 29.99 in1015.6 mb 0.00 in0.0 mm 0.00 in0.0 mm 0.00 in0.0 mm
02:05 AM 55.7°F13.2°C 39.3°F4.1°C 54% 8.0 mph WNW12.9 kmh WNW 15.0 mph24.1 kmh 29.99 in1015.6 mb 0.00 in0.0 mm 0.00 in0.0 mm 0.00 in0.0 mm
02:00 AM 55.8°F13.2°C 40.8°F4.9°C 57% 8.0 mph NNW12.9 kmh NNW 12.0 mph19.3 kmh 29.99 in1015.6 mb 0.00 in0.0 mm 0.00 in0.0 mm 0.00 in0.0 mm
01:55 AM 56.0°F13.3°C 41.9°F5.5°C 59% 12.0 mph NW19.3 kmh NW 13.0 mph20.9 kmh 29.99 in1015.6 mb 0.00 in0.0 mm 0.00 in0.0 mm 0.00 in0.0 mm
01:50 AM 56.1°F13.4°C 42.0°F5.6°C 59% 12.0 mph N19.3 kmh N 17.0 mph27.4 kmh 30.00 in1015.9 mb 0.00 in0.0 mm 0.00 in0.0 mm 0.00 in0.0 mm
01:45 AM 56.4°F13.6°C 41.4°F5.2°C 57% 14.0 mph NNW22.5 kmh NNW 16.0 mph25.7 kmh 29.99 in1015.6 mb 0.00 in0.0 mm 0.00 in0.0 mm 0.00 in0.0 mm
01:40 AM 56.7°F13.7°C 41.7°F5.4°C 57% 20.0 mph NW32.2 kmh NW 20.0 mph32.2 kmh 29.99 in1015.6 mb 0.00 in0.0 mm 0.00 in0.0 mm 0.00 in0.0 mm
01:35 AM 57.1°F13.9°C 42.5°F5.8°C 58% 6.0 mph NNW9.7 kmh NNW 13.0 mph20.9 kmh 29.99 in1015.6 mb 0.00 in0.0 mm 0.00 in0.0 mm 0.00 in0.0 mm
01:30 AM 57.5°F14.2°C 43.3°F6.3°C 59% 15.0 mph NW24.1 kmh NW 15.0 mph24.1 kmh 29.99 in1015.6 mb 0.00 in0.0 mm 0.00 in0.0 mm 0.00 in0.0 mm
01:25 AM 57.7°F14.3°C 43.9°F6.6°C 60% 10.0 mph NW16.1 kmh NW 14.0 mph22.5 kmh 29.99 in1015.6 mb 0.00 in0.0 mm 0.00 in0.0 mm 0.00 in0.0 mm
01:20 AM 57.8°F14.3°C 44.0°F6.7°C 60% 11.0 mph W17.7 kmh W 18.0 mph29.0 kmh 29.98 in1015.2 mb 0.00 in0.0 mm 0.00 in0.0 mm 0.00 in0.0 mm
01:15 AM 57.9°F14.4°C 44.1°F6.7°C 60% 13.0 mph WNW20.9 kmh WNW 23.0 mph37.0 kmh 29.98 in1015.2 mb 0.00 in0.0 mm 0.00 in0.0 mm 0.00 in0.0 mm
01:10 AM 58.0°F14.4°C 44.6°F7.0°C 61% 10.0 mph NW16.1 kmh NW 16.0 mph25.7 kmh 29.98 in1015.2 mb 0.00 in0.0 mm 0.00 in0.0 mm 0.00 in0.0 mm
01:05 AM 58.0°F14.4°C 45.1°F7.3°C 62% 8.0 mph W12.9 kmh W 14.0 mph22.5 kmh 29.98 in1015.2 mb 0.00 in0.0 mm 0.00 in0.0 mm 0.00 in0.0 mm
01:00 AM 58.0°F14.4°C 45.1°F7.3°C 62% 10.0 mph W16.1 kmh W 18.0 mph29.0 kmh 29.99 in1015.6 mb 0.00 in0.0 mm 0.00 in0.0 mm 0.00 in0.0 mm
12:55 AM 58.0°F14.4°C 44.6°F7.0°C 61% 9.0 mph W14.5 kmh W 15.0 mph24.1 kmh 29.98 in1015.2 mb 0.00 in0.0 mm 0.00 in0.0 mm 0.00 in0.0 mm
12:50 AM 58.1°F14.5°C 45.2°F7.3°C 62% 4.0 mph W6.4 kmh W 12.0 mph19.3 kmh 29.98 in1015.2 mb 0.00 in0.0 mm 0.00 in0.0 mm 0.00 in0.0 mm
12:45 AM 58.2°F14.6°C 46.1°F7.8°C 64% 13.0 mph WNW20.9 kmh WNW 16.0 mph25.7 kmh 29.98 in1015.2 mb 0.00 in0.0 mm 0.00 in0.0 mm 0.00 in0.0 mm
12:40 AM 58.2°F14.6°C 46.1°F7.8°C 64% 7.0 mph WNW11.3 kmh WNW 13.0 mph20.9 kmh 29.98 in1015.2 mb 0.00 in0.0 mm 0.00 in0.0 mm 0.00 in0.0 mm
12:35 AM 58.4°F14.7°C 45.9°F7.7°C 63% 11.0 mph WSW17.7 kmh WSW 21.0 mph33.8 kmh 29.98 in1015.2 mb 0.00 in0.0 mm 0.00 in0.0 mm 0.00 in0.0 mm
12:30 AM 58.6°F14.8°C 46.1°F7.8°C 63% 7.0 mph W11.3 kmh W 11.0 mph17.7 kmh 29.98 in1015.2 mb 0.00 in0.0 mm 0.00 in0.0 mm 0.00 in0.0 mm
12:25 AM 58.6°F14.8°C 44.3°F6.8°C 59% 26.0 mph W41.8 kmh W 26.0 mph41.8 kmh 29.98 in1015.2 mb 0.00 in0.0 mm 0.00 in0.0 mm 0.00 in0.0 mm
12:20 AM 58.6°F14.8°C 44.3°F6.8°C 59% 13.0 mph WNW20.9 kmh WNW 13.0 mph20.9 kmh 29.97 in1014.9 mb 0.00 in0.0 mm 0.00 in0.0 mm 0.00 in0.0 mm
12:15 AM 58.6°F14.8°C 44.8°F7.1°C 60% 15.0 mph NW24.1 kmh NW 20.0 mph32.2 kmh 29.98 in1015.2 mb 0.00 in0.0 mm 0.00 in0.0 mm 0.00 in0.0 mm
12:10 AM 58.6°F14.8°C 44.8°F7.1°C 60% 15.0 mph NW24.1 kmh NW 20.0 mph32.2 kmh 29.98 in1015.2 mb 0.00 in0.0 mm 0.00 in0.0 mm 0.00 in0.0 mm
12:05 AM 58.6°F14.8°C 44.8°F7.1°C 60% 20.0 mph NW32.2 kmh NW 20.0 mph32.2 kmh 29.98 in1015.2 mb 0.00 in0.0 mm 0.00 in0.0 mm 0.00 in0.0 mm
12:00 AM 58.5°F14.7°C 45.1°F7.3°C 61% 22.0 mph W35.4 kmh W 29.0 mph46.7 kmh 29.98 in1015.2 mb 0.00 in0.0 mm 0.00 in0.0 mm 0.00 in0.0 mm